Time;durP1;ratioP1;P1;durP2;ratioP2;P2;SDS_P1;SDS_P2;PMS_P1;PMS_P2;Temp;Humidity;BMP_temperature;BMP_pressure;BME280_temperature;BME280_humidity;BME280_pressure;Samples;Min_cycle;Max_cycle;Signal;HPM_P1;HPM_P2
2022/03/28 00:01:44;;;;;;;12.63;11.33;;;6.40;99.90;;;7.29;71.28;98822.06;5214975;28;20218;-53
2022/03/28 00:04:17;;;;;;;14.80;11.80;;;6.30;99.90;;;7.23;71.67;98825.88;5217164;28;20695;-53
2022/03/28 00:06:52;;;;;;;14.20;11.57;;;6.20;99.90;;;7.17;71.95;98822.81;5216572;28;20209;-53
2022/03/28 00:09:25;;;;;;;12.63;11.23;;;6.10;99.90;;;7.12;73.03;98823.19;5221654;28;20229;-49
2022/03/28 00:11:58;;;;;;;12.67;11.37;;;6.10;99.90;;;7.06;72.61;98827.72;5219192;28;20205;-50
2022/03/28 00:14:31;;;;;;;13.73;11.80;;;6.10;99.90;;;6.99;72.93;98821.25;5220944;28;20581;-53
2022/03/28 00:17:05;;;;;;;14.30;11.17;;;6.00;99.90;;;6.87;73.56;98815.13;5219097;28;20231;-50
2022/03/28 00:19:38;;;;;;;13.40;11.80;;;6.00;99.90;;;6.79;73.15;98818.63;5219841;28;20590;-50
2022/03/28 00:22:12;;;;;;;13.47;11.40;;;5.90;99.90;;;6.72;73.14;98820.63;5221653;28;20217;-49
2022/03/28 00:24:45;;;;;;;13.50;11.63;;;5.90;99.90;;;6.64;72.92;98811.47;5217924;28;20592;-50
2022/03/28 00:27:19;;;;;;;12.83;11.50;;;5.80;99.90;;;6.59;72.88;98815.22;5219055;28;20215;-50
2022/03/28 00:29:52;;;;;;;13.70;12.27;;;5.80;99.90;;;6.63;72.95;98812.19;5219137;28;20229;-52
2022/03/28 00:32:25;;;;;;;14.80;12.30;;;5.80;99.90;;;6.54;73.78;98808.84;5215094;28;20205;-49
2022/03/28 00:34:59;;;;;;;12.80;11.40;;;5.70;99.90;;;6.45;74.21;98803.84;5212421;28;20216;-49
2022/03/28 00:37:36;;;;;;;13.50;12.10;;;5.60;99.90;;;6.44;74.17;98796.09;5216818;28;20192;-56
2022/03/28 00:40:12;;;;;;;13.57;11.67;;;5.50;99.90;;;6.43;74.83;98799.41;5218252;28;20217;-51
2022/03/28 00:42:45;;;;;;;13.33;11.70;;;5.50;99.90;;;6.31;74.70;98797.56;5221588;28;20216;-50
2022/03/28 00:45:19;;;;;;;12.57;11.37;;;5.30;99.90;;;6.22;74.80;98796.75;5216604;28;20203;-49
2022/03/28 00:47:52;;;;;;;13.83;12.37;;;5.30;99.90;;;6.18;75.65;98789.63;5212840;28;20208;-52
2022/03/28 00:50:28;;;;;;;13.43;11.40;;;5.30;99.90;;;6.11;76.53;98789.81;5216716;28;20225;-53
2022/03/28 00:53:04;;;;;;;13.23;11.83;;;5.30;99.90;;;6.04;76.46;98792.59;5215345;28;20223;-49
2022/03/28 00:55:37;;;;;;;13.33;12.03;;;5.20;99.90;;;6.01;77.18;98777.97;5211324;28;20201;-51
2022/03/28 00:58:10;;;;;;;13.27;11.97;;;5.10;99.90;;;5.90;77.47;98786.22;5212304;28;20790;-52
2022/03/28 01:00:44;;;;;;;13.27;11.80;;;5.00;99.90;;;5.93;76.56;98778.00;5211405;28;20218;-52
2022/03/28 01:03:17;;;;;;;13.37;11.80;;;5.00;99.90;;;5.85;76.49;98778.19;5212364;28;20221;-52
2022/03/28 01:05:50;;;;;;;13.30;12.00;;;5.10;99.90;;;5.82;78.49;98777.91;5211539;28;20209;-51
2022/03/28 01:08:26;;;;;;;13.47;12.07;;;5.00;99.90;;;5.85;77.44;98768.03;5216655;28;20566;-51
2022/03/28 01:11:03;;;;;;;13.23;11.83;;;5.10;99.90;;;5.75;77.65;98768.00;5215248;28;20217;-51
2022/03/28 01:13:38;;;;;;;14.03;12.40;;;5.00;99.90;;;5.84;77.53;98768.81;5214364;28;20202;-49
2022/03/28 01:16:12;;;;;;;14.10;12.57;;;5.10;99.90;;;5.87;77.22;98768.19;5210351;28;20204;-55
2022/03/28 01:18:47;;;;;;;13.73;11.83;;;5.10;99.90;;;5.87;77.36;98763.13;5220277;28;20197;-48
2022/03/28 01:21:22;;;;;;;13.50;12.13;;;5.10;99.90;;;5.81;77.58;98760.94;5211400;28;20304;-50
2022/03/28 01:23:56;;;;;;;14.07;12.33;;;5.10;99.90;;;5.81;77.40;98763.47;5215402;28;20216;-49
2022/03/28 01:26:30;;;;;;;12.60;11.40;;;5.00;99.90;;;5.74;77.04;98760.22;5219060;28;20196;-49
2022/03/28 01:29:05;;;;;;;13.43;11.70;;;4.90;99.90;;;5.69;77.51;98759.81;5215463;28;20227;-51
2022/03/28 01:31:39;;;;;;;14.67;12.17;;;4.90;99.90;;;5.65;78.34;98757.75;5215428;28;20192;-49
2022/03/28 01:34:18;;;;;;;14.73;12.43;;;4.80;99.90;;;5.61;77.89;98764.19;5216496;28;20695;-49
2022/03/28 01:36:52;;;;;;;14.60;11.47;;;4.80;99.90;;;5.56;77.83;98757.81;5217112;28;20227;-56
2022/03/28 01:39:26;;;;;;;13.20;11.80;;;4.70;99.90;;;5.51;78.81;98760.69;5212900;28;20228;-50
2022/03/28 01:41:59;;;;;;;13.57;12.10;;;4.70;99.90;;;5.50;77.40;98753.84;5220153;28;20226;-49
2022/03/28 01:44:32;;;;;;;14.43;12.87;;;4.70;99.90;;;5.56;77.85;98756.94;5217067;28;20294;-49
2022/03/28 01:47:06;;;;;;;14.47;12.97;;;4.70;99.90;;;5.59;79.09;98754.66;5213639;28;20295;-53
2022/03/28 01:49:39;;;;;;;15.87;13.20;;;4.80;99.90;;;5.57;78.18;98751.09;5214663;28;20630;-48
2022/03/28 01:52:13;;;;;;;14.90;12.23;;;4.80;99.90;;;5.62;78.24;98753.28;5218113;28;20201;-56
2022/03/28 01:54:46;;;;;;;13.93;12.33;;;4.90;99.90;;;5.71;77.70;98745.63;5213378;28;20205;-52
2022/03/28 01:57:19;;;;;;;15.07;13.00;;;4.90;99.90;;;5.71;77.86;98754.88;5217857;28;20204;-49
2022/03/28 01:59:53;;;;;;;15.57;12.57;;;4.90;99.90;;;5.73;77.74;98745.78;5217430;28;20230;-51
2022/03/28 02:02:27;;;;;;;14.47;12.13;;;4.90;99.90;;;5.63;77.79;98744.03;5215895;28;20689;-48
2022/03/28 02:05:00;;;;;;;14.33;12.83;;;4.80;99.90;;;5.67;77.70;98743.56;5214431;28;20565;-49
2022/03/28 02:07:35;;;;;;;15.13;13.10;;;4.80;99.90;;;5.63;78.15;98738.97;5213629;28;20204;-49
2022/03/28 02:10:10;;;;;;;16.63;14.40;;;4.80;99.90;;;5.64;77.56;98731.50;5213920;28;20219;-49
2022/03/28 02:12:43;;;;;;;17.87;14.93;;;4.80;99.90;;;5.54;77.94;98730.53;5213513;28;20200;-59
2022/03/28 02:15:17;;;;;;;16.10;13.90;;;4.70;99.90;;;5.49;77.92;98736.81;5215347;28;20202;-49
2022/03/28 02:17:50;;;;;;;16.60;14.80;;;4.70;99.90;;;5.51;77.89;98725.19;5218477;28;20208;-55
2022/03/28 02:20:23;;;;;;;16.23;13.97;;;4.60;99.90;;;5.48;78.33;98732.53;5217014;28;20223;-49
2022/03/28 02:22:57;;;;;;;19.00;14.97;;;4.70;99.90;;;5.45;78.29;98734.78;5221370;28;20221;-53
2022/03/28 02:25:35;;;;;;;18.33;15.17;;;4.70;99.90;;;5.32;78.47;98722.63;5214208;28;20204;-51
2022/03/28 02:28:11;;;;;;;16.50;14.80;;;4.60;99.90;;;5.38;78.22;98723.19;5217998;28;20203;-53
2022/03/28 02:30:44;;;;;;;16.07;14.37;;;4.60;99.90;;;5.41;78.19;98728.56;5216021;28;20218;-50
2022/03/28 02:33:17;;;;;;;16.53;14.00;;;4.60;99.90;;;5.37;78.25;98727.34;5213767;28;20648;-53
2022/03/28 02:35:50;;;;;;;17.77;14.87;;;4.60;99.90;;;5.31;78.74;98716.66;5217361;28;20647;-51
2022/03/28 02:38:25;;;;;;;17.90;14.60;;;4.60;99.90;;;5.34;78.62;98721.13;5213060;28;20204;-56
2022/03/28 02:40:59;;;;;;;20.33;15.63;;;4.60;99.90;;;5.36;78.78;98722.16;5216953;28;20229;-49
2022/03/28 02:43:32;;;;;;;15.77;14.17;;;4.60;99.90;;;5.37;78.88;98721.41;5216446;28;20204;-51
2022/03/28 02:46:07;;;;;;;18.80;14.57;;;4.60;99.90;;;5.41;79.04;98721.81;5214108;28;20199;-50
2022/03/28 02:48:40;;;;;;;15.03;13.50;;;4.60;99.90;;;5.35;78.60;98726.34;5216525;28;20202;-52
2022/03/28 02:51:13;;;;;;;18.63;14.43;;;4.50;99.90;;;5.28;78.65;98716.38;5213829;28;20201;-54
2022/03/28 02:53:48;;;;;;;16.97;14.70;;;4.50;99.90;;;5.28;79.25;98715.50;5211909;28;20203;-55
2022/03/28 02:56:21;;;;;;;16.03;14.37;;;4.50;99.90;;;5.29;79.58;98713.09;5211919;28;20209;-52
2022/03/28 02:58:54;;;;;;;15.57;13.73;;;4.50;99.90;;;5.26;80.12;98709.38;5215729;28;20567;-49
2022/03/28 03:01:27;;;;;;;15.03;13.23;;;4.50;99.90;;;5.20;79.62;98712.25;5213122;28;20211;-52
2022/03/28 03:04:00;;;;;;;17.43;14.57;;;4.50;99.90;;;5.18;79.37;98716.31;5207799;28;20219;-49
2022/03/28 03:06:33;;;;;;;15.83;14.20;;;4.40;99.90;;;5.15;79.33;98714.38;5215297;28;20206;-53
2022/03/28 03:09:08;;;;;;;16.43;14.60;;;4.40;99.90;;;5.08;79.52;98706.97;5213691;28;20226;-51
2022/03/28 03:11:41;;;;;;;18.13;14.53;;;4.30;99.90;;;5.06;80.46;98707.56;5213812;28;20203;-50
2022/03/28 03:14:14;;;;;;;16.30;14.50;;;4.40;99.90;;;5.13;80.34;98709.94;5214976;28;20194;-53
2022/03/28 03:16:47;;;;;;;17.70;15.03;;;4.40;99.90;;;5.15;80.28;98714.38;5214801;28;20206;-50
2022/03/28 03:19:21;;;;;;;16.30;13.73;;;4.40;99.90;;;5.20;80.33;98712.25;5211106;28;20585;-53
2022/03/28 03:21:54;;;;;;;16.97;14.17;;;4.50;99.90;;;5.24;79.83;98709.28;5214101;28;20567;-49
2022/03/28 03:24:28;;;;;;;15.97;14.37;;;4.50;99.90;;;5.21;79.19;98701.38;5211439;28;20610;-49
2022/03/28 03:27:01;;;;;;;15.00;13.40;;;4.40;99.90;;;5.15;79.28;98704.25;5215203;28;20200;-49
2022/03/28 03:29:36;;;;;;;16.13;14.43;;;4.40;99.90;;;5.00;79.77;98707.00;5213716;28;20231;-49
2022/03/28 03:32:10;;;;;;;16.07;14.40;;;4.30;99.90;;;4.99;79.63;98706.13;5212356;28;20199;-49
2022/03/28 03:34:43;;;;;;;15.83;14.20;;;4.20;99.90;;;4.92;78.64;98709.75;5211856;28;20737;-55
2022/03/28 03:37:16;;;;;;;15.03;13.43;;;4.10;99.90;;;4.88;79.25;98712.72;5211738;28;20694;-49
2022/03/28 03:39:50;;;;;;;17.10;14.30;;;4.10;99.90;;;4.62;78.93;98704.34;5212472;28;20232;-51
2022/03/28 03:42:23;;;;;;;17.30;13.73;;;3.90;99.90;;;4.68;79.37;98707.44;5214919;28;20215;-49
2022/03/28 03:44:56;;;;;;;16.73;14.70;;;3.90;99.90;;;4.69;79.35;98710.13;5215239;28;20204;-48
2022/03/28 03:47:29;;;;;;;15.90;13.90;;;3.90;99.90;;;4.64;79.23;98707.94;5210147;28;20647;-49
2022/03/28 03:50:04;;;;;;;16.03;13.80;;;3.70;99.90;;;4.53;80.79;98706.91;5214877;28;21362;-54
2022/03/28 03:52:37;;;;;;;15.07;13.47;;;3.70;99.90;;;4.44;80.51;98709.47;5213462;28;20209;-51
2022/03/28 03:55:12;;;;;;;13.53;12.13;;;3.60;99.90;;;4.43;79.56;98710.19;5215158;28;20201;-49
2022/03/28 03:57:46;;;;;;;14.77;13.27;;;3.50;99.90;;;4.39;80.60;98708.13;5210524;28;20199;-51
2022/03/28 04:00:19;;;;;;;14.07;12.53;;;3.60;99.90;;;4.31;81.48;98714.13;5212824;28;20680;-50
2022/03/28 04:02:53;;;;;;;14.40;12.90;;;3.50;99.90;;;4.25;81.51;98708.47;5217489;28;20235;-49
2022/03/28 04:05:27;;;;;;;14.77;13.23;;;3.50;99.90;;;4.17;80.85;98704.31;5218073;28;20207;-52
2022/03/28 04:08:00;;;;;;;16.23;14.13;;;3.30;99.90;;;4.03;82.08;98701.38;5217105;28;20202;-49
2022/03/28 04:10:35;;;;;;;14.83;13.00;;;3.20;99.90;;;3.84;82.17;98702.88;5214983;28;20223;-51
2022/03/28 04:13:09;;;;;;;16.37;13.30;;;3.10;99.90;;;3.79;83.62;98699.03;5212794;28;20208;-49
2022/03/28 04:15:43;;;;;;;15.73;14.07;;;3.00;99.90;;;3.76;82.54;98704.66;5202566;28;20205;-52
2022/03/28 04:18:16;;;;;;;15.00;12.77;;;3.00;99.90;;;3.81;83.17;98700.06;5212164;28;20198;-52
2022/03/28 04:20:49;;;;;;;16.60;14.70;;;3.10;99.90;;;3.93;83.25;98697.81;5210710;28;20232;-53
2022/03/28 04:23:23;;;;;;;13.97;12.50;;;3.20;99.90;;;3.95;82.39;98697.22;5206219;28;20237;-50
2022/03/28 04:25:58;;;;;;;15.13;13.53;;;3.20;99.90;;;3.99;82.54;98691.72;5201620;28;20204;-49
2022/03/28 04:28:31;;;;;;;14.97;13.27;;;3.30;99.90;;;4.00;82.24;98695.13;5212227;28;20200;-49
2022/03/28 04:31:04;;;;;;;15.77;14.07;;;3.30;99.90;;;4.00;81.54;98690.06;5210741;28;20213;-49
2022/03/28 04:33:37;;;;;;;14.07;12.57;;;3.30;99.90;;;4.01;82.26;98692.75;5217383;28;20202;-48
2022/03/28 04:36:10;;;;;;;17.10;13.63;;;3.30;99.90;;;4.04;82.53;98690.50;5219185;28;20203;-49
2022/03/28 04:38:43;;;;;;;16.73;14.23;;;3.30;99.90;;;4.07;82.50;98690.81;5217317;28;20198;-52
2022/03/28 04:41:18;;;;;;;16.77;13.60;;;3.40;99.90;;;4.12;82.19;98688.72;5216241;28;20217;-52
2022/03/28 04:43:51;;;;;;;16.30;14.53;;;3.40;99.90;;;4.15;81.97;98690.63;5222692;28;20229;-53
2022/03/28 04:46:24;;;;;;;17.40;14.80;;;3.40;99.90;;;4.10;82.30;98687.69;5217650;28;20202;-53
2022/03/28 04:48:57;;;;;;;17.20;14.60;;;3.30;99.90;;;4.07;82.56;98693.34;5222568;28;20594;-48
2022/03/28 04:51:30;;;;;;;18.00;15.53;;;3.30;99.90;;;4.14;83.80;98692.28;5215230;28;20210;-49
2022/03/28 04:54:04;;;;;;;16.40;13.97;;;3.50;99.90;;;4.15;83.09;98690.63;5222069;28;20190;-51
2022/03/28 04:56:38;;;;;;;16.30;14.47;;;3.40;99.90;;;4.13;82.71;98694.66;5217065;28;20201;-48
2022/03/28 04:59:11;;;;;;;19.10;15.47;;;3.40;99.90;;;4.10;82.77;98691.84;5220195;28;20233;-52
2022/03/28 05:01:44;;;;;;;16.23;13.57;;;3.40;99.90;;;4.12;82.36;98700.44;5216681;28;20590;-48
2022/03/28 05:04:18;;;;;;;18.43;14.80;;;3.30;99.90;;;4.12;83.78;98702.97;5228569;28;20761;-52
2022/03/28 05:06:51;;;;;;;17.13;13.87;;;3.40;99.90;;;4.11;83.64;98697.03;5222415;28;20198;-48
2022/03/28 05:09:24;;;;;;;16.43;13.37;;;3.40;99.90;;;4.15;84.14;98700.75;5224179;28;20217;-49
2022/03/28 05:11:58;;;;;;;17.50;14.20;;;3.50;99.90;;;4.21;83.60;98698.81;5225116;28;20197;-48
2022/03/28 05:14:31;;;;;;;16.33;14.13;;;3.60;99.90;;;4.21;84.12;98698.81;5222710;28;20676;-48
2022/03/28 05:17:05;;;;;;;18.83;14.20;;;3.50;99.90;;;4.21;83.90;98696.28;5220458;28;20197;-48
2022/03/28 05:19:38;;;;;;;17.73;14.97;;;3.50;99.90;;;4.19;83.60;98705.38;5216833;28;20221;-49
2022/03/28 05:22:11;;;;;;;18.57;14.10;;;3.50;99.90;;;4.18;83.25;98701.94;5212839;28;20191;-49
2022/03/28 05:24:44;;;;;;;20.20;16.10;;;3.40;99.90;;;4.30;82.39;98704.75;5217679;28;20221;-49
2022/03/28 05:27:19;;;;;;;17.97;15.63;;;3.50;99.90;;;4.17;82.54;98701.78;5217589;28;20202;-48
2022/03/28 05:29:53;;;;;;;17.17;14.70;;;3.40;99.90;;;4.15;82.77;98701.66;5213729;28;20223;-49
2022/03/28 05:32:29;;;;;;;18.90;15.00;;;3.40;99.90;;;4.18;82.23;98701.94;5220913;28;20230;-51
2022/03/28 05:35:02;;;;;;;19.43;15.43;;;3.40;99.90;;;4.22;82.71;98698.94;5224734;28;20193;-51
2022/03/28 05:37:36;;;;;;;18.27;16.17;;;3.50;99.90;;;4.25;82.21;98704.31;5216971;28;20205;-49
2022/03/28 05:40:11;;;;;;;16.83;14.37;;;3.50;99.90;;;4.23;81.32;98687.19;5224795;28;20223;-49
2022/03/28 05:42:46;;;;;;;17.33;15.53;;;3.30;99.90;;;4.19;80.62;98687.66;5215483;28;20197;-54
2022/03/28 05:45:19;;;;;;;17.97;14.87;;;3.30;99.90;;;4.11;81.65;98688.56;5221443;28;20244;-50
2022/03/28 05:47:52;;;;;;;19.97;15.07;;;3.30;99.90;;;4.11;81.73;98689.44;5211598;28;20205;-49
2022/03/28 05:50:25;;;;;;;17.57;14.63;;;3.30;99.90;;;4.16;82.33;98688.25;5224380;28;20693;-51
2022/03/28 05:52:58;;;;;;;19.27;14.90;;;3.40;99.90;;;4.25;82.51;98688.22;5222090;28;20208;-49
2022/03/28 05:55:31;;;;;;;20.30;16.57;;;3.50;99.90;;;4.31;82.63;98692.97;5225347;28;20197;-52
2022/03/28 05:58:07;;;;;;;18.63;14.33;;;3.60;99.90;;;4.61;82.29;98690.81;5215629;28;20654;-52
2022/03/28 06:00:41;;;;;;;17.03;14.80;;;3.80;99.90;;;4.85;79.98;98689.66;5217867;28;20226;-53
2022/03/28 06:03:14;;;;;;;17.33;14.37;;;4.00;99.90;;;5.18;79.65;98686.78;5212358;28;20621;-54
2022/03/28 06:06:08;;;;;;;17.23;14.37;;;4.20;99.90;;;5.32;78.22;98692.19;5218660;28;20209;-53
2022/03/28 06:08:41;;;;;;;17.17;14.70;;;4.40;99.90;;;5.35;77.36;98687.41;5219378;28;20214;-51
2022/03/28 06:11:15;;;;;;;19.40;15.60;;;4.50;99.90;;;5.61;78.21;98689.78;5216617;28;20199;-51
2022/03/28 06:13:49;;;;;;;18.07;15.17;;;4.80;99.90;;;5.77;76.69;98690.38;5227843;28;20224;-51
2022/03/28 06:16:22;;;;;;;15.83;14.17;;;4.80;99.90;;;5.68;76.17;98687.03;5213869;28;20579;-49
2022/03/28 06:18:55;;;;;;;15.97;14.23;;;4.80;99.90;;;5.66;75.30;98685.97;5208261;28;20231;-50
2022/03/28 06:21:30;;;;;;;20.23;14.80;;;4.80;99.90;;;5.63;76.38;98686.59;5221239;28;20579;-49
2022/03/28 06:24:04;;;;;;;18.93;14.80;;;4.80;99.90;;;5.75;75.72;98680.84;5213960;28;20227;-51
2022/03/28 06:26:37;;;;;;;17.33;14.93;;;5.00;99.90;;;6.24;74.97;98688.63;5224324;28;20198;-49
2022/03/28 06:29:11;;;;;;;20.33;15.77;;;5.10;99.90;;;6.64;73.28;98679.38;5216777;28;20307;-50
2022/03/28 06:31:44;;;;;;;18.70;14.70;;;5.40;99.90;;;6.89;71.50;98681.44;5223507;28;20214;-50
2022/03/28 06:34:19;;;;;;;18.30;14.83;;;5.70;99.90;;;7.17;70.70;98682.09;5217890;28;20615;-50
2022/03/28 06:36:53;;;;;;;17.57;14.93;;;5.90;99.90;;;7.52;69.55;98677.38;5217002;28;20205;-50
2022/03/28 06:39:26;;;;;;;19.53;14.83;;;6.20;99.90;;;7.67;68.42;98673.56;5223608;28;20223;-49
2022/03/28 06:41:59;;;;;;;19.83;14.30;;;6.40;99.90;;;7.85;67.91;98670.72;5210257;28;20204;-53
2022/03/28 06:44:33;;;;;;;17.70;14.83;;;6.40;99.90;;;8.25;66.21;98664.59;5216535;28;20236;-49
2022/03/28 06:47:06;;;;;;;17.63;14.63;;;6.90;99.90;;;8.43;66.60;98675.38;5219267;28;20196;-50
2022/03/28 06:49:39;;;;;;;16.43;14.63;;;7.00;99.90;;;8.82;65.07;98671.59;5221862;28;20221;-51
2022/03/28 06:52:12;;;;;;;19.13;15.40;;;7.40;99.90;;;9.16;63.62;98669.06;5212621;28;20208;-50
2022/03/28 06:54:45;;;;;;;18.60;15.07;;;7.80;99.90;;;9.63;62.87;98669.16;5216864;28;20194;-52
2022/03/28 06:57:19;;;;;;;17.67;14.40;;;7.90;99.90;;;9.92;60.67;98666.19;5219371;28;20220;-50
2022/03/28 06:59:53;;;;;;;17.37;15.00;;;8.20;99.90;;;10.33;60.13;98668.28;5214458;28;20318;-56
2022/03/28 07:02:27;;;;;;;19.63;14.83;;;8.40;99.90;;;10.74;57.98;98668.66;5215396;28;20201;-51
2022/03/28 07:05:00;;;;;;;17.00;14.77;;;8.70;99.90;;;11.28;55.98;98657.84;5218414;28;20220;-53
2022/03/28 07:07:40;;;;;;;17.53;14.83;;;8.90;98.80;;;11.56;55.03;98654.56;5223076;28;20220;-50
2022/03/28 07:10:15;;;;;;;17.50;15.33;;;9.30;98.20;;;11.79;54.29;98650.94;5212254;28;20225;-50
2022/03/28 07:12:50;;;;;;;17.50;14.50;;;9.30;97.60;;;12.16;53.71;98654.22;5220633;28;20446;-50
2022/03/28 07:15:26;;;;;;;17.53;15.03;;;9.70;97.40;;;12.21;52.78;98651.06;5218861;28;20238;-52
2022/03/28 07:18:06;;;;;;;17.03;15.00;;;9.80;96.70;;;12.24;52.71;98649.56;5223751;28;20570;-50
2022/03/28 07:20:39;;;;;;;18.75;15.45;;;10.10;96.50;;;12.20;52.94;98649.28;5218891;28;20221;-55
2022/03/28 07:23:13;;;;;;;20.30;15.90;;;10.20;96.00;;;12.00;53.63;98646.34;5222139;28;20212;-50
2022/03/28 07:25:47;;;;;;;18.25;15.57;;;10.30;95.60;;;12.10;53.68;98643.59;5215029;28;20216;-50
2022/03/28 07:28:20;;;;;;;21.23;15.52;;;10.50;95.50;;;12.16;53.59;98646.53;5219854;28;20642;-53
2022/03/28 07:30:54;;;;;;;17.88;15.93;;;10.70;95.00;;;12.31;52.78;98644.06;5214438;28;20225;-50
2022/03/28 07:33:28;;;;;;;19.63;15.90;;;10.90;94.60;;;12.30;53.06;98642.25;5210611;28;20262;-50
2022/03/28 07:36:01;;;;;;;18.92;15.13;;;10.90;94.50;;;12.56;53.31;98645.56;5220060;28;20587;-50
2022/03/28 07:38:34;;;;;;;17.52;14.82;;;11.10;94.50;;;12.56;53.22;98637.88;5216322;28;20902;-50
2022/03/28 07:41:07;;;;;;;17.50;14.70;;;11.30;94.20;;;12.90;52.47;98622.84;5216980;28;20283;-51
2022/03/28 07:43:40;;;;;;;18.92;15.90;;;11.50;93.70;;;12.83;52.13;98631.00;5219135;28;20201;-50
2022/03/28 07:46:14;;;;;;;17.80;15.57;;;11.60;93.40;;;13.22;51.42;98619.66;5218987;28;20226;-58
2022/03/28 07:48:47;;;;;;;18.77;16.02;;;11.90;93.40;;;13.14;51.32;98615.75;5221462;28;20286;-52
2022/03/28 07:51:20;;;;;;;20.45;15.98;;;12.10;93.00;;;13.36;50.96;98620.47;5218097;28;20207;-50
2022/03/28 07:53:54;;;;;;;18.65;15.68;;;12.10;92.60;;;13.56;50.47;98619.06;5218648;28;20193;-52
2022/03/28 07:56:27;;;;;;;18.65;15.23;;;12.40;92.80;;;13.68;49.79;98613.78;5219929;28;20206;-50
2022/03/28 07:59:00;;;;;;;17.10;15.30;;;12.70;91.80;;;13.94;50.05;98618.69;5218271;28;20218;-53
2022/03/28 08:01:35;;;;;;;17.83;14.90;;;12.80;91.90;;;14.29;49.58;98611.16;5216304;28;20202;-51
2022/03/28 08:04:08;;;;;;;19.05;15.98;;;13.20;91.00;;;14.42;48.31;98599.06;5219268;28;20215;-51
2022/03/28 08:06:41;;;;;;;18.95;15.75;;;13.40;90.80;;;14.70;47.46;98608.25;5215609;28;20218;-51
2022/03/28 08:09:14;;;;;;;20.67;16.25;;;13.50;90.50;;;14.80;46.31;98610.53;5222870;28;20221;-51
2022/03/28 08:11:47;;;;;;;19.00;16.42;;;13.60;89.50;;;14.77;46.29;98599.19;5225404;28;20193;-51
2022/03/28 08:14:20;;;;;;;18.55;16.58;;;13.80;88.40;;;14.93;45.67;98598.28;5224639;28;20654;-54
2022/03/28 08:16:55;;;;;;;20.02;16.17;;;13.80;87.50;;;15.18;45.20;98595.28;5227956;28;20204;-53
2022/03/28 08:19:28;;;;;;;18.70;16.23;;;14.10;86.00;;;15.29;44.42;98588.97;5220629;28;20229;-53
2022/03/28 08:22:01;;;;;;;18.88;15.63;;;14.30;85.30;;;15.32;44.62;98590.00;5225148;28;20202;-53
2022/03/28 08:24:35;;;;;;;18.25;15.07;;;14.30;85.00;;;15.46;43.82;98588.13;5224312;28;20193;-53
2022/03/28 08:27:08;;;;;;;20.30;16.23;;;14.40;84.30;;;15.66;43.81;98586.53;5225074;28;20217;-51
2022/03/28 08:29:41;;;;;;;18.90;16.08;;;14.60;83.50;;;15.90;42.62;98580.81;5224497;28;20243;-53
2022/03/28 08:32:16;;;;;;;21.08;16.10;;;14.90;81.50;;;16.08;41.56;98581.72;5216862;28;20231;-55
2022/03/28 08:34:50;;;;;;;23.08;16.05;;;15.10;80.30;;;16.21;41.26;98578.88;5217960;28;20220;-52
2022/03/28 08:37:24;;;;;;;18.13;15.25;;;15.30;80.00;;;16.36;40.61;98582.97;5225611;28;20219;-51
2022/03/28 08:39:57;;;;;;;19.65;15.10;;;15.40;78.90;;;16.57;40.40;98580.50;5224436;28;20213;-53
2022/03/28 08:42:32;;;;;;;18.42;15.43;;;15.60;77.80;;;16.72;39.69;98570.84;5226113;28;20568;-52
2022/03/28 08:45:08;;;;;;;19.65;15.93;;;15.80;76.60;;;16.82;39.50;98572.16;5220745;28;20200;-54
2022/03/28 08:47:47;;;;;;;19.20;14.45;;;16.00;76.10;;;17.04;38.84;98571.41;5223716;28;20193;-54
2022/03/28 08:50:42;;;;;;;22.35;15.82;;;16.20;75.20;;;17.07;37.85;98571.53;5222022;28;20595;-54
2022/03/28 08:53:15;;;;;;;17.10;14.63;;;16.30;74.10;;;17.33;38.71;98576.09;5211254;28;20185;-50
2022/03/28 08:55:48;;;;;;;20.02;15.75;;;16.60;74.80;;;17.63;38.10;98564.41;5219733;28;20190;-53
2022/03/28 08:58:21;;;;;;;19.70;15.52;;;16.90;73.10;;;17.75;37.82;98564.88;5222254;28;20193;-55
2022/03/28 09:00:55;;;;;;;21.67;15.25;;;17.00;73.10;;;17.90;37.01;98554.28;5224127;28;20217;-53
2022/03/28 09:03:39;;;;;;;23.08;15.55;;;17.10;72.10;;;18.11;36.66;98555.09;5223369;28;20476;-52
2022/03/28 09:06:33;;;;;;;18.25;15.77;;;17.40;71.00;;;18.37;36.05;98550.03;5217587;28;20251;-50
2022/03/28 09:09:16;;;;;;;20.35;15.93;;;17.50;70.30;;;18.44;35.17;98541.69;5223583;28;20209;-51
2022/03/28 09:11:53;;;;;;;19.45;15.57;;;17.60;69.30;;;18.58;35.49;98547.38;5222388;28;20260;-53
2022/03/28 09:14:29;;;;;;;20.00;15.60;;;17.70;69.70;;;18.69;34.69;98541.75;5222781;28;20226;-50
2022/03/28 09:17:05;;;;;;;18.75;15.23;;;17.90;67.70;;;18.94;34.17;98541.78;5222196;28;20276;-50
2022/03/28 09:19:45;;;;;;;19.08;14.80;;;18.10;67.50;;;19.09;32.55;98531.97;5218793;28;20233;-51
2022/03/28 09:22:21;;;;;;;18.25;15.02;;;18.20;64.50;;;19.12;33.37;98532.06;5220719;28;20200;-51
2022/03/28 09:24:57;;;;;;;18.98;15.05;;;18.40;65.80;;;19.21;32.92;98529.78;5218594;28;20237;-56
2022/03/28 09:27:33;;;;;;;18.65;14.80;;;18.40;65.10;;;19.40;32.96;98532.97;5219516;28;20227;-53
2022/03/28 09:30:10;;;;;;;19.38;15.43;;;18.50;65.70;;;19.54;32.26;98530.03;5223426;28;20677;-51
2022/03/28 09:32:48;;;;;;;19.48;15.38;;;18.70;63.50;;;19.65;31.96;98522.59;5220883;28;20235;-58
2022/03/28 09:35:25;;;;;;;18.27;15.15;;;18.90;63.60;;;19.84;32.01;98515.41;5220573;28;20197;-54
2022/03/28 09:38:02;;;;;;;20.10;15.40;;;19.00;63.70;;;19.93;32.14;98505.31;5223438;28;20201;-51
2022/03/28 09:40:43;;;;;;;19.98;15.55;;;19.00;63.80;;;19.73;32.46;98505.56;5226744;28;20233;-53
2022/03/28 09:43:19;;;;;;;19.60;14.60;;;19.10;63.90;;;19.94;30.80;98500.13;5220045;28;20211;-54
2022/03/28 09:45:54;;;;;;;17.55;14.98;;;19.20;60.80;;;20.07;30.41;98496.22;5214462;28;20220;-54
2022/03/28 09:48:29;;;;;;;19.13;14.43;;;19.30;60.30;;;20.23;30.20;98495.84;5213228;28;20202;-50
2022/03/28 09:51:06;;;;;;;16.92;15.13;;;19.50;59.90;;;20.44;31.01;98495.56;5215679;28;20220;-53
2022/03/28 09:53:41;;;;;;;20.52;14.77;;;19.60;60.80;;;20.53;29.94;98488.91;5220707;28;20201;-51
2022/03/28 09:56:14;;;;;;;18.75;15.50;;;19.60;59.90;;;20.48;30.81;98487.00;5222995;28;20201;-55
2022/03/28 09:58:49;;;;;;;14.63;12.98;;;19.70;60.80;;;20.57;29.82;98481.22;5218001;28;20193;-51
2022/03/28 10:01:24;;;;;;;17.95;14.73;;;19.60;60.00;;;20.56;29.92;98473.41;5217519;28;20193;-53
2022/03/28 10:04:03;;;;;;;16.85;15.02;;;19.70;59.90;;;20.64;30.08;98474.50;5219191;28;20220;-57
2022/03/28 10:06:40;;;;;;;16.65;14.85;;;19.70;60.10;;;20.77;29.23;98473.09;5218336;28;20228;-57
2022/03/28 10:09:13;;;;;;;19.25;14.85;;;19.90;58.60;;;20.85;28.23;98462.06;5218667;28;20660;-58
2022/03/28 10:11:46;;;;;;;19.63;16.70;;;20.00;57.60;;;20.80;28.37;98463.66;5219599;28;20286;-57
2022/03/28 10:14:20;;;;;;;19.98;15.52;;;19.90;57.70;;;20.85;28.25;98451.66;5210920;28;20202;-58
2022/03/28 10:16:54;;;;;;;19.00;16.17;;;19.90;57.50;;;20.97;28.40;98456.28;5222652;28;20568;-58
2022/03/28 10:19:27;;;;;;;18.17;15.68;;;20.10;57.40;;;20.89;27.91;98450.91;5216773;28;20278;-56
2022/03/28 10:22:06;;;;;;;20.45;15.55;;;20.20;56.70;;;20.89;28.46;98450.91;5219891;28;20205;-58
2022/03/28 10:24:42;;;;;;;20.70;16.08;;;20.30;57.20;;;20.98;27.55;98447.69;5217801;28;20218;-57
2022/03/28 10:27:17;;;;;;;18.90;16.58;;;20.30;56.20;;;21.02;26.62;98439.09;5215870;28;20225;-59
2022/03/28 10:29:52;;;;;;;17.65;15.73;;;20.20;55.10;;;21.06;26.98;98434.84;5215749;28;20217;-58
2022/03/28 10:32:25;;;;;;;19.20;15.20;;;20.30;55.40;;;21.21;27.12;98424.84;5221219;28;20208;-58
2022/03/28 10:35:06;;;;;;;17.42;15.48;;;20.40;55.70;;;21.27;26.96;98426.72;5214888;28;20201;-58
2022/03/28 10:37:44;;;;;;;17.20;15.32;;;20.40;55.50;;;21.29;26.47;98425.00;5221343;28;20219;-58
2022/03/28 10:40:27;;;;;;;18.20;16.08;;;20.60;54.90;;;21.29;27.15;98417.19;5213160;28;20245;-58
2022/03/28 10:43:07;;;;;;;19.08;16.23;;;20.60;55.40;;;21.43;26.28;98410.63;5211834;28;20216;-55
2022/03/28 10:45:51;;;;;;;18.80;15.63;;;20.60;54.60;;;21.57;26.28;98411.81;5216969;28;20795;-59